sensor_id;sensor_type;location;lat;lon;timestamp;P1;durP1;ratioP1;P2;durP2;ratioP2
44508;SDS011;30214;52.246;14.408;2023-02-28T00:00:36;7.53;;;4.32;;
44508;SDS011;30214;52.246;14.408;2023-02-28T00:03:05;6.72;;;4.05;;
44508;SDS011;30214;52.246;14.408;2023-02-28T00:05:32;9.27;;;4.25;;
44508;SDS011;30214;52.246;14.408;2023-02-28T00:08:00;8.07;;;3.90;;
44508;SDS011;30214;52.246;14.408;2023-02-28T00:10:28;13.07;;;4.85;;
44508;SDS011;30214;52.246;14.408;2023-02-28T00:12:59;8.40;;;4.13;;
44508;SDS011;30214;52.246;14.408;2023-02-28T00:15:29;7.72;;;3.70;;
44508;SDS011;30214;52.246;14.408;2023-02-28T00:17:57;7.47;;;3.97;;
44508;SDS011;30214;52.246;14.408;2023-02-28T00:20:25;9.23;;;4.40;;
44508;SDS011;30214;52.246;14.408;2023-02-28T00:22:53;8.38;;;4.03;;
44508;SDS011;30214;52.246;14.408;2023-02-28T00:25:21;7.75;;;3.90;;
44508;SDS011;30214;52.246;14.408;2023-02-28T00:27:50;8.13;;;4.40;;
44508;SDS011;30214;52.246;14.408;2023-02-28T00:30:18;9.00;;;4.15;;
44508;SDS011;30214;52.246;14.408;2023-02-28T00:32:49;9.25;;;4.47;;
44508;SDS011;30214;52.246;14.408;2023-02-28T00:35:17;8.82;;;4.35;;
44508;SDS011;30214;52.246;14.408;2023-02-28T00:37:47;9.02;;;4.22;;
44508;SDS011;30214;52.246;14.408;2023-02-28T00:40:15;8.60;;;4.13;;
44508;SDS011;30214;52.246;14.408;2023-02-28T00:42:42;7.90;;;4.30;;
44508;SDS011;30214;52.246;14.408;2023-02-28T00:45:09;9.43;;;3.95;;
44508;SDS011;30214;52.246;14.408;2023-02-28T00:47:37;9.48;;;3.92;;
44508;SDS011;30214;52.246;14.408;2023-02-28T00:50:04;7.70;;;4.10;;
44508;SDS011;30214;52.246;14.408;2023-02-28T00:52:35;6.13;;;3.90;;
44508;SDS011;30214;52.246;14.408;2023-02-28T00:55:04;7.78;;;4.22;;
44508;SDS011;30214;52.246;14.408;2023-02-28T00:57:32;7.82;;;3.85;;
44508;SDS011;30214;52.246;14.408;2023-02-28T00:59:59;7.90;;;4.20;;
44508;SDS011;30214;52.246;14.408;2023-02-28T01:02:27;7.40;;;3.65;;
44508;SDS011;30214;52.246;14.408;2023-02-28T01:04:55;7.30;;;4.20;;
44508;SDS011;30214;52.246;14.408;2023-02-28T01:07:22;7.80;;;3.80;;
44508;SDS011;30214;52.246;14.408;2023-02-28T01:09:50;8.15;;;3.80;;
44508;SDS011;30214;52.246;14.408;2023-02-28T01:12:18;7.15;;;4.30;;
44508;SDS011;30214;52.246;14.408;2023-02-28T01:14:46;7.82;;;4.20;;
44508;SDS011;30214;52.246;14.408;2023-02-28T01:17:13;9.27;;;4.65;;
44508;SDS011;30214;52.246;14.408;2023-02-28T01:19:40;9.07;;;5.10;;
44508;SDS011;30214;52.246;14.408;2023-02-28T01:22:08;10.93;;;5.68;;
44508;SDS011;30214;52.246;14.408;2023-02-28T01:24:36;12.90;;;6.05;;
44508;SDS011;30214;52.246;14.408;2023-02-28T01:27:04;10.85;;;4.80;;
44508;SDS011;30214;52.246;14.408;2023-02-28T01:29:32;7.63;;;4.65;;
44508;SDS011;30214;52.246;14.408;2023-02-28T01:31:59;10.73;;;4.85;;
44508;SDS011;30214;52.246;14.408;2023-02-28T01:34:26;7.88;;;4.28;;
44508;SDS011;30214;52.246;14.408;2023-02-28T01:36:53;10.07;;;4.55;;
44508;SDS011;30214;52.246;14.408;2023-02-28T01:39:21;8.77;;;4.75;;
44508;SDS011;30214;52.246;14.408;2023-02-28T01:41:49;9.68;;;4.93;;
44508;SDS011;30214;52.246;14.408;2023-02-28T01:47:27;8.75;;;4.78;;
44508;SDS011;30214;52.246;14.408;2023-02-28T01:49:57;10.05;;;4.68;;
44508;SDS011;30214;52.246;14.408;2023-02-28T01:52:29;7.43;;;4.30;;
44508;SDS011;30214;52.246;14.408;2023-02-28T01:54:58;10.07;;;5.28;;
44508;SDS011;30214;52.246;14.408;2023-02-28T01:57:30;13.77;;;4.63;;
44508;SDS011;30214;52.246;14.408;2023-02-28T02:00:06;9.13;;;4.35;;
44508;SDS011;30214;52.246;14.408;2023-02-28T02:02:38;9.68;;;4.30;;
44508;SDS011;30214;52.246;14.408;2023-02-28T02:05:08;8.80;;;4.70;;
44508;SDS011;30214;52.246;14.408;2023-02-28T02:07:39;7.60;;;4.15;;
44508;SDS011;30214;52.246;14.408;2023-02-28T02:10:13;11.18;;;4.88;;
44508;SDS011;30214;52.246;14.408;2023-02-28T02:15:49;7.57;;;4.20;;
44508;SDS011;30214;52.246;14.408;2023-02-28T02:18:30;7.78;;;4.30;;
44508;SDS011;30214;52.246;14.408;2023-02-28T02:27:46;8.18;;;4.00;;
44508;SDS011;30214;52.246;14.408;2023-02-28T02:30:46;10.38;;;4.70;;
44508;SDS011;30214;52.246;14.408;2023-02-28T02:37:06;7.55;;;4.10;;
44508;SDS011;30214;52.246;14.408;2023-02-28T02:39:44;8.75;;;4.65;;
44508;SDS011;30214;52.246;14.408;2023-02-28T02:42:20;7.65;;;4.05;;
44508;SDS011;30214;52.246;14.408;2023-02-28T02:44:55;9.57;;;4.50;;
44508;SDS011;30214;52.246;14.408;2023-02-28T02:47:28;10.52;;;4.40;;
44508;SDS011;30214;52.246;14.408;2023-02-28T02:49:59;8.15;;;4.20;;
44508;SDS011;30214;52.246;14.408;2023-02-28T02:52:34;10.65;;;4.55;;
44508;SDS011;30214;52.246;14.408;2023-02-28T02:55:08;7.90;;;4.25;;
44508;SDS011;30214;52.246;14.408;2023-02-28T02:57:38;7.78;;;4.03;;
44508;SDS011;30214;52.246;14.408;2023-02-28T03:00:12;6.97;;;4.05;;
44508;SDS011;30214;52.246;14.408;2023-02-28T03:02:43;7.60;;;3.70;;
44508;SDS011;30214;52.246;14.408;2023-02-28T03:05:16;9.05;;;4.55;;
44508;SDS011;30214;52.246;14.408;2023-02-28T03:07:46;11.20;;;5.32;;
44508;SDS011;30214;52.246;14.408;2023-02-28T03:10:27;8.80;;;3.83;;
44508;SDS011;30214;52.246;14.408;2023-02-28T03:13:01;7.82;;;3.95;;
44508;SDS011;30214;52.246;14.408;2023-02-28T03:15:46;8.18;;;4.40;;
44508;SDS011;30214;52.246;14.408;2023-02-28T03:18:24;7.88;;;3.97;;
44508;SDS011;30214;52.246;14.408;2023-02-28T03:21:01;11.15;;;4.70;;
44508;SDS011;30214;52.246;14.408;2023-02-28T03:23:42;8.35;;;4.07;;
44508;SDS011;30214;52.246;14.408;2023-02-28T03:26:17;8.02;;;3.95;;
44508;SDS011;30214;52.246;14.408;2023-02-28T03:28:51;8.43;;;4.33;;
44508;SDS011;30214;52.246;14.408;2023-02-28T03:31:26;8.32;;;4.28;;
44508;SDS011;30214;52.246;14.408;2023-02-28T03:33:58;7.18;;;3.95;;
44508;SDS011;30214;52.246;14.408;2023-02-28T03:36:32;8.65;;;3.83;;
44508;SDS011;30214;52.246;14.408;2023-02-28T03:39:09;6.80;;;3.92;;
44508;SDS011;30214;52.246;14.408;2023-02-28T03:41:42;10.05;;;5.20;;
44508;SDS011;30214;52.246;14.408;2023-02-28T03:44:16;6.57;;;3.72;;
44508;SDS011;30214;52.246;14.408;2023-02-28T03:46:48;11.23;;;4.30;;
44508;SDS011;30214;52.246;14.408;2023-02-28T03:49:21;7.57;;;4.03;;
44508;SDS011;30214;52.246;14.408;2023-02-28T03:51:53;7.15;;;4.03;;
44508;SDS011;30214;52.246;14.408;2023-02-28T03:54:23;7.75;;;3.92;;
44508;SDS011;30214;52.246;14.408;2023-02-28T03:56:56;9.48;;;4.70;;
44508;SDS011;30214;52.246;14.408;2023-02-28T03:59:30;7.57;;;4.30;;
44508;SDS011;30214;52.246;14.408;2023-02-28T04:02:04;7.32;;;3.92;;
44508;SDS011;30214;52.246;14.408;2023-02-28T04:04:31;7.22;;;4.00;;
44508;SDS011;30214;52.246;14.408;2023-02-28T04:07:04;7.03;;;4.10;;
44508;SDS011;30214;52.246;14.408;2023-02-28T04:09:33;8.05;;;3.92;;
44508;SDS011;30214;52.246;14.408;2023-02-28T04:12:01;9.45;;;4.45;;
44508;SDS011;30214;52.246;14.408;2023-02-28T04:14:28;9.27;;;4.28;;
44508;SDS011;30214;52.246;14.408;2023-02-28T04:16:55;7.28;;;3.78;;
44508;SDS011;30214;52.246;14.408;2023-02-28T04:19:22;7.40;;;4.10;;
44508;SDS011;30214;52.246;14.408;2023-02-28T04:21:50;8.93;;;4.60;;
44508;SDS011;30214;52.246;14.408;2023-02-28T04:24:21;7.30;;;3.92;;
44508;SDS011;30214;52.246;14.408;2023-02-28T04:26:51;9.00;;;3.92;;
44508;SDS011;30214;52.246;14.408;2023-02-28T04:29:21;9.98;;;4.25;;
44508;SDS011;30214;52.246;14.408;2023-02-28T04:31:51;8.07;;;4.60;;
44508;SDS011;30214;52.246;14.408;2023-02-28T04:34:18;7.93;;;4.20;;
44508;SDS011;30214;52.246;14.408;2023-02-28T04:36:46;8.25;;;4.15;;
44508;SDS011;30214;52.246;14.408;2023-02-28T04:39:16;10.65;;;4.22;;
44508;SDS011;30214;52.246;14.408;2023-02-28T04:41:45;11.55;;;4.88;;
44508;SDS011;30214;52.246;14.408;2023-02-28T04:44:12;9.23;;;4.82;;
44508;SDS011;30214;52.246;14.408;2023-02-28T04:46:39;8.55;;;4.50;;
44508;SDS011;30214;52.246;14.408;2023-02-28T04:49:07;8.80;;;4.65;;
44508;SDS011;30214;52.246;14.408;2023-02-28T04:51:37;10.10;;;5.13;;
44508;SDS011;30214;52.246;14.408;2023-02-28T04:54:04;8.40;;;4.80;;
44508;SDS011;30214;52.246;14.408;2023-02-28T04:56:31;10.00;;;4.57;;
44508;SDS011;30214;52.246;14.408;2023-02-28T04:59:00;8.45;;;4.47;;
44508;SDS011;30214;52.246;14.408;2023-02-28T05:01:28;10.20;;;5.32;;
44508;SDS011;30214;52.246;14.408;2023-02-28T05:03:58;8.32;;;5.15;;
44508;SDS011;30214;52.246;14.408;2023-02-28T05:06:27;9.70;;;4.75;;
44508;SDS011;30214;52.246;14.408;2023-02-28T05:08:56;8.57;;;4.50;;
44508;SDS011;30214;52.246;14.408;2023-02-28T05:11:25;9.55;;;5.50;;
44508;SDS011;30214;52.246;14.408;2023-02-28T05:14:00;15.63;;;7.30;;
44508;SDS011;30214;52.246;14.408;2023-02-28T05:16:28;12.77;;;6.40;;
44508;SDS011;30214;52.246;14.408;2023-02-28T05:18:56;11.57;;;6.63;;
44508;SDS011;30214;52.246;14.408;2023-02-28T05:21:25;10.35;;;6.65;;
44508;SDS011;30214;52.246;14.408;2023-02-28T05:23:56;10.60;;;6.45;;
44508;SDS011;30214;52.246;14.408;2023-02-28T05:26:26;13.05;;;7.30;;
44508;SDS011;30214;52.246;14.408;2023-02-28T05:28:54;10.02;;;6.30;;
44508;SDS011;30214;52.246;14.408;2023-02-28T05:31:22;10.77;;;6.25;;
44508;SDS011;30214;52.246;14.408;2023-02-28T05:33:49;8.60;;;5.72;;
44508;SDS011;30214;52.246;14.408;2023-02-28T05:36:17;10.07;;;6.00;;
44508;SDS011;30214;52.246;14.408;2023-02-28T05:38:45;8.90;;;5.72;;
44508;SDS011;30214;52.246;14.408;2023-02-28T05:41:14;10.40;;;6.25;;
44508;SDS011;30214;52.246;14.408;2023-02-28T05:43:41;9.60;;;6.20;;
44508;SDS011;30214;52.246;14.408;2023-02-28T05:46:10;10.95;;;6.15;;
44508;SDS011;30214;52.246;14.408;2023-02-28T05:48:40;10.38;;;5.93;;
44508;SDS011;30214;52.246;14.408;2023-02-28T05:51:12;7.93;;;4.97;;
44508;SDS011;30214;52.246;14.408;2023-02-28T05:53:39;8.07;;;5.15;;
44508;SDS011;30214;52.246;14.408;2023-02-28T05:56:06;8.93;;;5.47;;
44508;SDS011;30214;52.246;14.408;2023-02-28T05:58:34;10.23;;;5.20;;
44508;SDS011;30214;52.246;14.408;2023-02-28T06:01:18;8.95;;;4.63;;
44508;SDS011;30214;52.246;14.408;2023-02-28T06:03:51;8.85;;;4.80;;
44508;SDS011;30214;52.246;14.408;2023-02-28T06:06:18;7.70;;;4.75;;
44508;SDS011;30214;52.246;14.408;2023-02-28T06:08:45;7.78;;;4.72;;
44508;SDS011;30214;52.246;14.408;2023-02-28T06:11:13;9.38;;;4.93;;
44508;SDS011;30214;52.246;14.408;2023-02-28T06:13:40;8.07;;;4.40;;
44508;SDS011;30214;52.246;14.408;2023-02-28T06:16:08;9.27;;;4.43;;
44508;SDS011;30214;52.246;14.408;2023-02-28T06:18:36;7.93;;;4.60;;
44508;SDS011;30214;52.246;14.408;2023-02-28T06:21:05;7.18;;;4.07;;
44508;SDS011;30214;52.246;14.408;2023-02-28T06:23:33;7.93;;;3.97;;
44508;SDS011;30214;52.246;14.408;2023-02-28T06:26:00;6.85;;;3.85;;
44508;SDS011;30214;52.246;14.408;2023-02-28T06:28:28;8.27;;;4.00;;
44508;SDS011;30214;52.246;14.408;2023-02-28T06:30:55;7.25;;;4.28;;
44508;SDS011;30214;52.246;14.408;2023-02-28T06:33:22;8.60;;;4.25;;
44508;SDS011;30214;52.246;14.408;2023-02-28T06:35:49;8.52;;;4.65;;
44508;SDS011;30214;52.246;14.408;2023-02-28T06:38:18;10.32;;;4.18;;
44508;SDS011;30214;52.246;14.408;2023-02-28T06:40:52;10.25;;;4.78;;
44508;SDS011;30214;52.246;14.408;2023-02-28T06:43:20;8.43;;;4.13;;
44508;SDS011;30214;52.246;14.408;2023-02-28T06:45:47;7.95;;;4.10;;
44508;SDS011;30214;52.246;14.408;2023-02-28T06:48:14;6.57;;;3.90;;
44508;SDS011;30214;52.246;14.408;2023-02-28T06:50:41;8.88;;;4.75;;
44508;SDS011;30214;52.246;14.408;2023-02-28T06:53:09;9.43;;;4.90;;
44508;SDS011;30214;52.246;14.408;2023-02-28T06:55:38;10.45;;;4.22;;
44508;SDS011;30214;52.246;14.408;2023-02-28T06:58:05;8.05;;;4.53;;
44508;SDS011;30214;52.246;14.408;2023-02-28T07:03:07;10.82;;;5.85;;
44508;SDS011;30214;52.246;14.408;2023-02-28T07:05:34;10.10;;;5.43;;
44508;SDS011;30214;52.246;14.408;2023-02-28T07:08:01;10.50;;;5.68;;
44508;SDS011;30214;52.246;14.408;2023-02-28T07:10:29;12.40;;;5.95;;
44508;SDS011;30214;52.246;14.408;2023-02-28T07:12:59;11.32;;;5.78;;
44508;SDS011;30214;52.246;14.408;2023-02-28T07:15:26;11.40;;;5.95;;
44508;SDS011;30214;52.246;14.408;2023-02-28T07:17:53;11.63;;;5.75;;
44508;SDS011;30214;52.246;14.408;2023-02-28T07:20:21;14.20;;;6.13;;
44508;SDS011;30214;52.246;14.408;2023-02-28T07:22:49;10.48;;;5.85;;
44508;SDS011;30214;52.246;14.408;2023-02-28T07:25:21;11.60;;;5.78;;
44508;SDS011;30214;52.246;14.408;2023-02-28T07:27:48;13.15;;;6.82;;
44508;SDS011;30214;52.246;14.408;2023-02-28T07:30:17;12.65;;;5.97;;
44508;SDS011;30214;52.246;14.408;2023-02-28T07:32:44;14.27;;;6.82;;
44508;SDS011;30214;52.246;14.408;2023-02-28T07:35:11;11.23;;;5.88;;
44508;SDS011;30214;52.246;14.408;2023-02-28T07:37:40;11.57;;;5.07;;
44508;SDS011;30214;52.246;14.408;2023-02-28T07:40:08;12.93;;;6.47;;
44508;SDS011;30214;52.246;14.408;2023-02-28T07:42:38;10.73;;;5.97;;
44508;SDS011;30214;52.246;14.408;2023-02-28T07:45:06;12.98;;;6.47;;
44508;SDS011;30214;52.246;14.408;2023-02-28T07:47:38;11.50;;;6.18;;
44508;SDS011;30214;52.246;14.408;2023-02-28T07:50:05;14.50;;;6.50;;
44508;SDS011;30214;52.246;14.408;2023-02-28T07:52:34;15.55;;;6.53;;
44508;SDS011;30214;52.246;14.408;2023-02-28T07:55:02;12.60;;;6.72;;
44508;SDS011;30214;52.246;14.408;2023-02-28T07:57:30;11.25;;;6.03;;
44508;SDS011;30214;52.246;14.408;2023-02-28T07:59:58;15.70;;;5.82;;
44508;SDS011;30214;52.246;14.408;2023-02-28T08:02:25;14.07;;;6.28;;
44508;SDS011;30214;52.246;14.408;2023-02-28T08:04:53;12.63;;;6.32;;
44508;SDS011;30214;52.246;14.408;2023-02-28T08:07:21;11.35;;;5.38;;
44508;SDS011;30214;52.246;14.408;2023-02-28T08:09:48;9.90;;;4.88;;
44508;SDS011;30214;52.246;14.408;2023-02-28T08:12:15;8.85;;;4.72;;
44508;SDS011;30214;52.246;14.408;2023-02-28T08:14:42;11.45;;;5.20;;
44508;SDS011;30214;52.246;14.408;2023-02-28T08:17:09;10.73;;;5.05;;
44508;SDS011;30214;52.246;14.408;2023-02-28T08:19:37;9.73;;;5.22;;
44508;SDS011;30214;52.246;14.408;2023-02-28T08:22:05;10.90;;;4.10;;
44508;SDS011;30214;52.246;14.408;2023-02-28T08:24:32;9.10;;;4.35;;
44508;SDS011;30214;52.246;14.408;2023-02-28T08:26:59;9.63;;;4.03;;
44508;SDS011;30214;52.246;14.408;2023-02-28T08:29:27;8.25;;;4.30;;
44508;SDS011;30214;52.246;14.408;2023-02-28T08:31:55;6.80;;;3.25;;
44508;SDS011;30214;52.246;14.408;2023-02-28T08:34:23;6.90;;;3.42;;
44508;SDS011;30214;52.246;14.408;2023-02-28T08:36:50;9.10;;;3.80;;
44508;SDS011;30214;52.246;14.408;2023-02-28T08:39:19;8.43;;;3.65;;
44508;SDS011;30214;52.246;14.408;2023-02-28T08:41:46;7.72;;;3.42;;
44508;SDS011;30214;52.246;14.408;2023-02-28T08:44:13;8.65;;;3.42;;
44508;SDS011;30214;52.246;14.408;2023-02-28T08:46:40;7.55;;;3.65;;
44508;SDS011;30214;52.246;14.408;2023-02-28T08:49:09;7.38;;;3.78;;
44508;SDS011;30214;52.246;14.408;2023-02-28T08:51:38;8.15;;;3.92;;
44508;SDS011;30214;52.246;14.408;2023-02-28T08:54:05;10.88;;;4.22;;
44508;SDS011;30214;52.246;14.408;2023-02-28T08:56:34;9.02;;;4.05;;
44508;SDS011;30214;52.246;14.408;2023-02-28T08:59:01;6.45;;;3.42;;
44508;SDS011;30214;52.246;14.408;2023-02-28T09:01:28;9.23;;;3.85;;
44508;SDS011;30214;52.246;14.408;2023-02-28T09:03:56;8.82;;;4.15;;
44508;SDS011;30214;52.246;14.408;2023-02-28T09:06:25;8.07;;;3.80;;
44508;SDS011;30214;52.246;14.408;2023-02-28T09:08:53;10.20;;;4.15;;
44508;SDS011;30214;52.246;14.408;2023-02-28T09:11:24;8.40;;;3.83;;
44508;SDS011;30214;52.246;14.408;2023-02-28T09:13:52;12.43;;;3.38;;
44508;SDS011;30214;52.246;14.408;2023-02-28T09:16:20;7.80;;;3.65;;
44508;SDS011;30214;52.246;14.408;2023-02-28T09:18:48;7.30;;;3.53;;
44508;SDS011;30214;52.246;14.408;2023-02-28T09:21:16;8.23;;;3.40;;
44508;SDS011;30214;52.246;14.408;2023-02-28T09:23:45;10.18;;;3.47;;
44508;SDS011;30214;52.246;14.408;2023-02-28T09:26:14;7.43;;;3.10;;
44508;SDS011;30214;52.246;14.408;2023-02-28T09:28:43;6.13;;;3.22;;
44508;SDS011;30214;52.246;14.408;2023-02-28T09:31:13;6.25;;;2.40;;
44508;SDS011;30214;52.246;14.408;2023-02-28T09:33:45;7.10;;;3.35;;
44508;SDS011;30214;52.246;14.408;2023-02-28T09:36:12;7.93;;;3.20;;
44508;SDS011;30214;52.246;14.408;2023-02-28T09:38:39;6.07;;;3.10;;
44508;SDS011;30214;52.246;14.408;2023-02-28T09:41:10;5.68;;;3.03;;
44508;SDS011;30214;52.246;14.408;2023-02-28T09:43:41;5.80;;;2.63;;
44508;SDS011;30214;52.246;14.408;2023-02-28T09:46:21;6.75;;;2.08;;
44508;SDS011;30214;52.246;14.408;2023-02-28T09:48:56;4.68;;;2.03;;
44508;SDS011;30214;52.246;14.408;2023-02-28T09:51:32;5.80;;;2.53;;
44508;SDS011;30214;52.246;14.408;2023-02-28T09:54:10;4.13;;;1.90;;
44508;SDS011;30214;52.246;14.408;2023-02-28T09:56:44;6.18;;;2.70;;
44508;SDS011;30214;52.246;14.408;2023-02-28T09:59:19;5.43;;;2.42;;
44508;SDS011;30214;52.246;14.408;2023-02-28T10:02:03;4.97;;;2.38;;
44508;SDS011;30214;52.246;14.408;2023-02-28T10:04:44;4.80;;;3.00;;
44508;SDS011;30214;52.246;14.408;2023-02-28T10:07:22;5.13;;;2.17;;
44508;SDS011;30214;52.246;14.408;2023-02-28T10:10:14;6.07;;;2.42;;
44508;SDS011;30214;52.246;14.408;2023-02-28T10:12:47;6.18;;;2.38;;
44508;SDS011;30214;52.246;14.408;2023-02-28T10:15:16;4.25;;;2.17;;
44508;SDS011;30214;52.246;14.408;2023-02-28T10:17:47;6.18;;;2.78;;
44508;SDS011;30214;52.246;14.408;2023-02-28T10:20:20;5.70;;;2.75;;
44508;SDS011;30214;52.246;14.408;2023-02-28T10:22:56;4.47;;;2.13;;
44508;SDS011;30214;52.246;14.408;2023-02-28T10:25:32;5.57;;;2.63;;
44508;SDS011;30214;52.246;14.408;2023-02-28T10:28:08;6.13;;;2.47;;
44508;SDS011;30214;52.246;14.408;2023-02-28T10:30:38;6.00;;;2.28;;
44508;SDS011;30214;52.246;14.408;2023-02-28T10:33:14;4.13;;;2.05;;
44508;SDS011;30214;52.246;14.408;2023-02-28T10:35:48;6.43;;;2.92;;
44508;SDS011;30214;52.246;14.408;2023-02-28T10:38:17;5.95;;;2.75;;
44508;SDS011;30214;52.246;14.408;2023-02-28T10:40:46;5.85;;;2.70;;
44508;SDS011;30214;52.246;14.408;2023-02-28T10:43:18;5.70;;;2.70;;
44508;SDS011;30214;52.246;14.408;2023-02-28T10:48:29;5.85;;;2.60;;
44508;SDS011;30214;52.246;14.408;2023-02-28T10:51:01;5.68;;;2.30;;
44508;SDS011;30214;52.246;14.408;2023-02-28T10:53:33;3.88;;;2.10;;
44508;SDS011;30214;52.246;14.408;2023-02-28T10:56:04;7.15;;;2.63;;
44508;SDS011;30214;52.246;14.408;2023-02-28T10:58:45;7.43;;;2.55;;
44508;SDS011;30214;52.246;14.408;2023-02-28T11:01:17;7.90;;;2.88;;
44508;SDS011;30214;52.246;14.408;2023-02-28T11:03:47;6.22;;;2.92;;
44508;SDS011;30214;52.246;14.408;2023-02-28T11:06:16;5.65;;;2.75;;
44508;SDS011;30214;52.246;14.408;2023-02-28T11:08:48;7.50;;;3.30;;
44508;SDS011;30214;52.246;14.408;2023-02-28T11:11:18;7.72;;;2.92;;
44508;SDS011;30214;52.246;14.408;2023-02-28T11:13:47;5.70;;;3.08;;
44508;SDS011;30214;52.246;14.408;2023-02-28T11:16:18;5.40;;;2.75;;
44508;SDS011;30214;52.246;14.408;2023-02-28T11:18:49;6.85;;;3.20;;
44508;SDS011;30214;52.246;14.408;2023-02-28T11:21:20;5.68;;;2.78;;
44508;SDS011;30214;52.246;14.408;2023-02-28T11:23:51;6.40;;;3.00;;
44508;SDS011;30214;52.246;14.408;2023-02-28T11:26:35;6.93;;;2.90;;
44508;SDS011;30214;52.246;14.408;2023-02-28T11:29:12;7.63;;;2.85;;
44508;SDS011;30214;52.246;14.408;2023-02-28T11:32:00;5.40;;;2.72;;
44508;SDS011;30214;52.246;14.408;2023-02-28T11:34:40;5.40;;;2.63;;
44508;SDS011;30214;52.246;14.408;2023-02-28T11:37:11;6.47;;;3.17;;
44508;SDS011;30214;52.246;14.408;2023-02-28T11:39:41;6.55;;;3.30;;
44508;SDS011;30214;52.246;14.408;2023-02-28T11:42:22;5.13;;;2.70;;
44508;SDS011;30214;52.246;14.408;2023-02-28T11:45:03;6.80;;;3.50;;
44508;SDS011;30214;52.246;14.408;2023-02-28T11:47:47;6.28;;;2.58;;
44508;SDS011;30214;52.246;14.408;2023-02-28T11:50:26;5.25;;;2.90;;
44508;SDS011;30214;52.246;14.408;2023-02-28T11:53:10;4.80;;;2.50;;
44508;SDS011;30214;52.246;14.408;2023-02-28T11:55:46;6.05;;;2.95;;
44508;SDS011;30214;52.246;14.408;2023-02-28T11:58:30;6.18;;;3.20;;
44508;SDS011;30214;52.246;14.408;2023-02-28T12:01:14;6.22;;;2.63;;
44508;SDS011;30214;52.246;14.408;2023-02-28T12:03:58;6.78;;;3.53;;
44508;SDS011;30214;52.246;14.408;2023-02-28T12:06:36;9.38;;;3.20;;
44508;SDS011;30214;52.246;14.408;2023-02-28T12:09:14;4.68;;;2.85;;
44508;SDS011;30214;52.246;14.408;2023-02-28T12:12:01;8.80;;;2.95;;
44508;SDS011;30214;52.246;14.408;2023-02-28T12:14:50;5.50;;;2.83;;
44508;SDS011;30214;52.246;14.408;2023-02-28T12:17:43;5.15;;;2.65;;
44508;SDS011;30214;52.246;14.408;2023-02-28T12:20:23;5.22;;;3.10;;
44508;SDS011;30214;52.246;14.408;2023-02-28T12:23:04;4.88;;;3.15;;
44508;SDS011;30214;52.246;14.408;2023-02-28T12:25:50;7.07;;;2.80;;
44508;SDS011;30214;52.246;14.408;2023-02-28T12:28:36;6.15;;;3.30;;
44508;SDS011;30214;52.246;14.408;2023-02-28T12:31:09;6.13;;;3.13;;
44508;SDS011;30214;52.246;14.408;2023-02-28T12:33:42;9.18;;;3.22;;
44508;SDS011;30214;52.246;14.408;2023-02-28T12:36:14;6.65;;;3.10;;
44508;SDS011;30214;52.246;14.408;2023-02-28T12:38:48;7.13;;;3.10;;
44508;SDS011;30214;52.246;14.408;2023-02-28T12:41:22;5.60;;;3.00;;
44508;SDS011;30214;52.246;14.408;2023-02-28T12:43:57;5.55;;;2.78;;
44508;SDS011;30214;52.246;14.408;2023-02-28T12:46:29;5.78;;;2.80;;
44508;SDS011;30214;52.246;14.408;2023-02-28T12:49:04;7.00;;;3.42;;
44508;SDS011;30214;52.246;14.408;2023-02-28T12:51:34;6.93;;;3.22;;
44508;SDS011;30214;52.246;14.408;2023-02-28T12:54:07;6.65;;;2.72;;
44508;SDS011;30214;52.246;14.408;2023-02-28T12:56:44;7.97;;;4.25;;
44508;SDS011;30214;52.246;14.408;2023-02-28T12:59:22;7.03;;;2.85;;
44508;SDS011;30214;52.246;14.408;2023-02-28T13:01:57;6.78;;;3.00;;
44508;SDS011;30214;52.246;14.408;2023-02-28T13:07:33;6.45;;;2.95;;
44508;SDS011;30214;52.246;14.408;2023-02-28T13:10:44;5.78;;;2.78;;
44508;SDS011;30214;52.246;14.408;2023-02-28T13:13:16;6.55;;;3.08;;
44508;SDS011;30214;52.246;14.408;2023-02-28T13:15:57;5.90;;;2.80;;
44508;SDS011;30214;52.246;14.408;2023-02-28T13:18:29;6.50;;;3.35;;
44508;SDS011;30214;52.246;14.408;2023-02-28T13:21:01;7.85;;;3.22;;
44508;SDS011;30214;52.246;14.408;2023-02-28T13:29:57;5.57;;;2.85;;
44508;SDS011;30214;52.246;14.408;2023-02-28T13:32:33;5.50;;;2.90;;
44508;SDS011;30214;52.246;14.408;2023-02-28T13:44:12;4.38;;;2.60;;
44508;SDS011;30214;52.246;14.408;2023-02-28T13:49:52;5.72;;;3.15;;
44508;SDS011;30214;52.246;14.408;2023-02-28T13:52:22;5.75;;;3.08;;
44508;SDS011;30214;52.246;14.408;2023-02-28T13:54:54;5.00;;;2.92;;
44508;SDS011;30214;52.246;14.408;2023-02-28T13:57:38;5.93;;;2.97;;
44508;SDS011;30214;52.246;14.408;2023-02-28T14:00:23;6.60;;;3.15;;
44508;SDS011;30214;52.246;14.408;2023-02-28T14:03:17;9.05;;;2.63;;
44508;SDS011;30214;52.246;14.408;2023-02-28T14:06:15;6.70;;;2.83;;
44508;SDS011;30214;52.246;14.408;2023-02-28T14:08:52;6.13;;;2.97;;
44508;SDS011;30214;52.246;14.408;2023-02-28T14:11:25;6.20;;;2.70;;
44508;SDS011;30214;52.246;14.408;2023-02-28T14:13:57;5.80;;;2.70;;
44508;SDS011;30214;52.246;14.408;2023-02-28T14:16:25;6.97;;;2.97;;
44508;SDS011;30214;52.246;14.408;2023-02-28T14:19:05;6.38;;;3.22;;
44508;SDS011;30214;52.246;14.408;2023-02-28T14:21:40;6.07;;;2.72;;
44508;SDS011;30214;52.246;14.408;2023-02-28T14:24:25;6.70;;;3.63;;
44508;SDS011;30214;52.246;14.408;2023-02-28T14:27:28;5.40;;;2.90;;
44508;SDS011;30214;52.246;14.408;2023-02-28T14:33:22;6.82;;;3.10;;
44508;SDS011;30214;52.246;14.408;2023-02-28T14:36:03;6.53;;;2.72;;
44508;SDS011;30214;52.246;14.408;2023-02-28T14:38:40;9.05;;;3.28;;
44508;SDS011;30214;52.246;14.408;2023-02-28T14:41:18;6.90;;;3.08;;
44508;SDS011;30214;52.246;14.408;2023-02-28T14:43:53;8.68;;;3.25;;
44508;SDS011;30214;52.246;14.408;2023-02-28T14:46:24;6.78;;;3.35;;
44508;SDS011;30214;52.246;14.408;2023-02-28T14:48:56;6.60;;;3.15;;
44508;SDS011;30214;52.246;14.408;2023-02-28T14:51:25;7.53;;;3.50;;
44508;SDS011;30214;52.246;14.408;2023-02-28T14:53:56;8.23;;;3.20;;
44508;SDS011;30214;52.246;14.408;2023-02-28T14:56:28;6.90;;;3.30;;
44508;SDS011;30214;52.246;14.408;2023-02-28T14:59:00;8.00;;;3.80;;
44508;SDS011;30214;52.246;14.408;2023-02-28T15:01:31;7.80;;;3.55;;
44508;SDS011;30214;52.246;14.408;2023-02-28T15:04:00;7.43;;;3.80;;
44508;SDS011;30214;52.246;14.408;2023-02-28T15:09:13;6.07;;;3.50;;
44508;SDS011;30214;52.246;14.408;2023-02-28T15:11:44;7.72;;;3.60;;
44508;SDS011;30214;52.246;14.408;2023-02-28T15:14:15;6.68;;;3.03;;
44508;SDS011;30214;52.246;14.408;2023-02-28T15:16:47;6.70;;;3.53;;
44508;SDS011;30214;52.246;14.408;2023-02-28T15:19:20;10.98;;;3.42;;
44508;SDS011;30214;52.246;14.408;2023-02-28T15:21:52;6.50;;;3.50;;
44508;SDS011;30214;52.246;14.408;2023-02-28T15:24:27;6.40;;;3.28;;
44508;SDS011;30214;52.246;14.408;2023-02-28T15:27:03;7.05;;;3.63;;
44508;SDS011;30214;52.246;14.408;2023-02-28T15:29:35;6.43;;;3.40;;
44508;SDS011;30214;52.246;14.408;2023-02-28T15:32:20;7.13;;;3.28;;
44508;SDS011;30214;52.246;14.408;2023-02-28T15:34:53;5.47;;;3.33;;
44508;SDS011;30214;52.246;14.408;2023-02-28T15:37:26;6.75;;;3.70;;
44508;SDS011;30214;52.246;14.408;2023-02-28T15:40:03;6.90;;;3.30;;
44508;SDS011;30214;52.246;14.408;2023-02-28T15:42:38;9.15;;;4.05;;
44508;SDS011;30214;52.246;14.408;2023-02-28T15:47:55;7.57;;;3.55;;
44508;SDS011;30214;52.246;14.408;2023-02-28T15:50:24;6.07;;;3.30;;